Aérodrome :
LOGIN :

S'inscrire | Disclaimer

   EN    FR    IT 

 










Légende :    VFR   VFR Marginal   IFR   IFR Intensif   IFR Très Intensif
Visi : 
Plafond : 
>= 8 km
>= 3000ft
5 à 8 km
1000 à 3000 ft
1500m à 5 km
500 à 1000 ft
800 à 1500m
200 à 500 ft
< 800m
< 200 ft
Symboles :   Orages  Brouillard  Fortes neiges  Fortes précipitations  Vent > 20 kt
SIGMETs :   Divers  Orages  Givrage  Turbulence  Onde Orograph.  Cendres Volcan.






- Altitude de l'aérodrome : 97 ft
- Code IATA : EBJ


EKEB - Esbjerg

DERNIER METAR :
  • 051920Z AUTO 21014G27KT 9999 BKN024/// 08/05 Q1005

METARs EXPIRÉS :
  • 051850Z AUTO 21013G26KT 180V240 9999 BKN023/// 08/05 Q1005
  • 051820Z AUTO 21014KT 180V240 9999 BKN024/// 08/05 Q1006
  • 051750Z AUTO 21013KT 9999 BKN024/// 08/05 Q1007
  • 051720Z AUTO 21014G24KT 190V250 9999 BKN025/// 08/05 Q1007
  • 051650Z AUTO 22014KT 9999 BKN022/// 08/05 Q1007

TAF TAF EKEB
Valide du 05 à 18h jusqu'au 05 à 23h UTC


051705Z 0518/0523 23018KT 9999 BKN015
TEMPO 0518/0523 22025G40KT



MET'MAP, la Météo Aéronautique d'un coup d'oeil ! - Copyright ORBIFLY Décembre 2007 - Disclaimer

ORBIFLY MET'MAP TEAM :

Programmation & Développement : Alexandra Zaïnal
Sur une idée originale de : Baudouin d'Aumeries
Assistance à la programmation : Marc-Olivier Méhu
Soutien technique & logistique : Manuel Goepfert

Contact : metmap@orbifly.com




SOURCES & CREDITS :

   NOAA